createdAt,value
2023-04-11T00:01:01.605Z,18.90
2023-04-11T00:03:30.109Z,18.30
2023-04-11T00:08:15.839Z,19.00
2023-04-11T00:10:45.623Z,20.10
2023-04-11T00:13:14.107Z,20.40
2023-04-11T00:15:42.304Z,21.00
2023-04-11T00:18:12.777Z,20.40
2023-04-11T00:20:40.923Z,19.70
2023-04-11T00:23:09.239Z,20.80
2023-04-11T00:25:37.934Z,22.10
2023-04-11T00:28:06.224Z,22.10
2023-04-11T00:30:36.612Z,21.50
2023-04-11T00:33:05.881Z,20.20
2023-04-11T00:35:35.346Z,20.50
2023-04-11T00:38:04.216Z,21.20
2023-04-11T00:40:32.699Z,20.50
2023-04-11T00:43:20.805Z,19.20
2023-04-11T00:45:49.192Z,19.80
2023-04-11T00:48:17.697Z,21.50
2023-04-11T00:50:48.016Z,19.80
2023-04-11T00:53:18.959Z,21.90
2023-04-11T00:55:47.123Z,21.20
2023-04-11T00:58:16.920Z,22.40
2023-04-11T01:00:45.054Z,20.80
2023-04-11T01:03:14.691Z,23.00
2023-04-11T01:05:43.508Z,20.20
2023-04-11T01:08:13.532Z,22.20
2023-04-11T01:10:42.105Z,21.50
2023-04-11T01:13:10.326Z,20.90
2023-04-11T01:15:48.689Z,22.10
2023-04-11T01:18:18.980Z,22.00
2023-04-11T01:20:47.120Z,21.70
2023-04-11T01:23:25.869Z,20.40
2023-04-11T01:25:54.142Z,20.00
2023-04-11T01:28:22.736Z,20.70
2023-04-11T01:30:51.388Z,21.40
2023-04-11T01:33:23.170Z,21.40
2023-04-11T01:35:51.497Z,20.60
2023-04-11T01:38:23.249Z,22.30
2023-04-11T01:40:52.419Z,21.40
2023-04-11T01:43:20.705Z,21.20
2023-04-11T01:45:50.812Z,20.30
2023-04-11T01:48:19.737Z,21.20
2023-04-11T01:50:48.019Z,22.30
2023-04-11T01:53:16.826Z,21.10
2023-04-11T01:55:47.387Z,19.70
2023-04-11T01:58:16.554Z,19.90
2023-04-11T02:00:45.034Z,19.50
2023-04-11T02:03:14.336Z,18.80
2023-04-11T02:05:42.894Z,19.90
2023-04-11T02:08:19.063Z,22.10
2023-04-11T02:10:47.398Z,20.00
2023-04-11T02:13:15.543Z,19.90
2023-04-11T02:15:49.082Z,20.70
2023-04-11T02:18:18.861Z,20.60
2023-04-11T02:20:47.935Z,20.70
2023-04-11T02:23:16.378Z,19.70
2023-04-11T02:25:44.738Z,20.30
2023-04-11T02:28:12.965Z,19.40
2023-04-11T02:30:41.538Z,19.80
2023-04-11T02:33:10.570Z,20.70
2023-04-11T02:35:38.955Z,20.40
2023-04-11T02:38:09.153Z,18.50
2023-04-11T02:40:38.006Z,18.90
2023-04-11T02:43:11.744Z,18.50
2023-04-11T02:45:41.415Z,18.80
2023-04-11T02:48:09.700Z,18.60
2023-04-11T02:50:44.031Z,18.20
2023-04-11T02:53:13.001Z,19.30
2023-04-11T02:55:49.724Z,19.80
2023-04-11T02:58:20.255Z,18.90
2023-04-11T03:00:49.683Z,18.90
2023-04-11T03:03:26.554Z,17.30
2023-04-11T03:05:57.151Z,17.90
2023-04-11T03:08:25.961Z,17.90
2023-04-11T03:10:56.794Z,18.40
2023-04-11T03:13:26.467Z,18.40
2023-04-11T03:15:55.229Z,19.40
2023-04-11T03:18:27.718Z,17.40
2023-04-11T03:20:56.570Z,16.40
2023-04-11T03:23:27.710Z,18.50
2023-04-11T03:25:56.770Z,19.30
2023-04-11T03:28:25.190Z,17.50
2023-04-11T03:30:54.671Z,18.20
2023-04-11T03:33:26.468Z,17.60
2023-04-11T03:35:54.908Z,18.30
2023-04-11T03:38:25.138Z,19.30
2023-04-11T03:40:53.483Z,17.40
2023-04-11T03:43:24.813Z,20.20
2023-04-11T03:45:53.613Z,19.10
2023-04-11T03:48:48.178Z,20.30
2023-04-11T03:51:17.020Z,19.80
2023-04-11T03:53:56.181Z,18.70
2023-04-11T03:56:34.086Z,19.10
2023-04-11T03:59:02.383Z,19.60
2023-04-11T04:01:38.278Z,19.80
2023-04-11T04:04:07.705Z,18.90
2023-04-11T04:06:38.743Z,17.80
2023-04-11T04:09:07.760Z,18.30
2023-04-11T04:11:47.851Z,17.80
2023-04-11T04:14:23.426Z,19.20
2023-04-11T04:16:52.813Z,17.70
2023-04-11T04:19:21.306Z,18.50
2023-04-11T04:21:50.297Z,21.10
2023-04-11T04:24:21.390Z,19.80
2023-04-11T04:27:01.122Z,17.60
2023-04-11T04:29:48.845Z,17.20
2023-04-11T04:32:33.307Z,17.10
2023-04-11T04:35:10.634Z,18.00
2023-04-11T04:37:45.871Z,19.30
2023-04-11T04:40:40.100Z,18.10
2023-04-11T04:43:18.370Z,17.00
2023-04-11T04:46:05.808Z,17.30
2023-04-11T04:48:40.815Z,18.70
2023-04-11T04:51:09.028Z,17.20
2023-04-11T04:53:45.162Z,18.70
2023-04-11T04:56:13.769Z,18.00
2023-04-11T04:58:47.381Z,17.80
2023-04-11T05:01:17.670Z,16.50
2023-04-11T05:03:50.858Z,16.80
2023-04-11T05:06:28.257Z,18.20
2023-04-11T05:08:58.818Z,17.30
2023-04-11T05:11:29.164Z,17.30
2023-04-11T05:13:57.745Z,15.30
2023-04-11T05:16:26.759Z,15.70
2023-04-11T05:18:55.694Z,15.40
2023-04-11T05:21:24.649Z,16.00
2023-04-11T05:23:58.164Z,15.40
2023-04-11T05:26:27.726Z,16.20
2023-04-11T05:28:56.221Z,16.00
2023-04-11T05:31:29.081Z,15.10
2023-04-11T05:33:58.600Z,17.10
2023-04-11T05:36:28.481Z,15.20
2023-04-11T05:38:58.340Z,15.70
2023-04-11T05:41:28.702Z,14.50
2023-04-11T05:43:57.125Z,15.10
2023-04-11T05:46:27.830Z,15.00
2023-04-11T05:48:58.147Z,15.50
2023-04-11T05:51:26.647Z,15.50
2023-04-11T05:53:55.261Z,15.00
2023-04-11T05:56:23.659Z,14.40
2023-04-11T05:58:52.438Z,13.60
2023-04-11T06:01:21.333Z,14.80
2023-04-11T06:03:50.039Z,14.40
2023-04-11T06:06:19.532Z,14.10
2023-04-11T06:08:47.848Z,14.70
2023-04-11T06:11:16.265Z,12.70
2023-04-11T06:13:50.562Z,13.60
2023-04-11T06:16:19.222Z,12.80
2023-04-11T06:18:47.457Z,13.60
2023-04-11T06:21:16.781Z,13.40
2023-04-11T06:23:45.144Z,12.00
2023-04-11T06:26:13.338Z,9.60
2023-04-11T06:28:42.824Z,9.60
2023-04-11T06:31:11.629Z,9.90
2023-04-11T06:33:40.327Z,10.20
2023-04-11T06:36:09.385Z,9.70
2023-04-11T06:38:38.427Z,10.50
2023-04-11T06:41:07.385Z,10.70
2023-04-11T06:43:35.708Z,10.30
2023-04-11T06:46:08.207Z,9.90
2023-04-11T06:48:36.471Z,8.50
2023-04-11T06:51:04.994Z,9.60
2023-04-11T06:53:37.164Z,9.80
2023-04-11T06:56:05.842Z,8.20
2023-04-11T06:58:39.146Z,9.00
2023-04-11T07:01:07.735Z,9.80
2023-04-11T07:03:37.381Z,9.10
2023-04-11T07:06:07.600Z,8.80
2023-04-11T07:08:37.061Z,8.80
2023-04-11T07:11:05.499Z,10.60
2023-04-11T07:13:35.144Z,8.20
2023-04-11T07:16:03.539Z,8.60
2023-04-11T07:18:33.146Z,7.60
2023-04-11T07:21:01.310Z,7.90
2023-04-11T07:23:30.355Z,10.20
2023-04-11T07:25:58.499Z,9.90
2023-04-11T07:28:31.630Z,8.80
2023-04-11T07:31:00.195Z,8.60
2023-04-11T07:33:29.480Z,9.60
2023-04-11T07:36:03.225Z,7.80
2023-04-11T07:38:31.869Z,7.70
2023-04-11T07:41:01.346Z,7.00
2023-04-11T07:43:31.500Z,9.80
2023-04-11T07:45:59.955Z,9.10
2023-04-11T07:48:30.455Z,7.90
2023-04-11T07:50:59.039Z,8.10
2023-04-11T07:53:32.854Z,7.20
2023-04-11T07:56:02.257Z,6.50
2023-04-11T07:58:30.578Z,7.80
2023-04-11T08:00:58.854Z,7.40
2023-04-11T08:03:28.905Z,7.90
2023-04-11T08:05:57.416Z,8.00
2023-04-11T08:08:26.300Z,7.00
2023-04-11T08:10:54.697Z,6.60
2023-04-11T08:13:22.875Z,7.00
2023-04-11T08:15:52.381Z,8.10
2023-04-11T08:18:21.731Z,8.10
2023-04-11T08:20:50.018Z,7.20
2023-04-11T08:25:50.683Z,7.10
2023-04-11T08:28:19.006Z,7.40
2023-04-11T08:30:47.556Z,7.60
2023-04-11T08:33:16.484Z,9.00
2023-04-11T08:35:45.180Z,6.70
2023-04-11T08:38:14.451Z,6.30
2023-04-11T08:40:42.660Z,6.30
2023-04-11T08:43:12.506Z,6.70
2023-04-11T08:45:41.340Z,6.80
2023-04-11T08:48:09.675Z,6.20
2023-04-11T08:50:39.930Z,6.30
2023-04-11T08:53:08.796Z,6.70
2023-04-11T08:55:48.724Z,8.60
2023-04-11T08:58:17.329Z,8.20
2023-04-11T09:00:48.011Z,9.30
2023-04-11T09:03:16.943Z,7.60
2023-04-11T09:05:51.629Z,6.90
2023-04-11T09:08:20.604Z,6.60
2023-04-11T09:10:48.830Z,6.10
2023-04-11T09:13:24.739Z,6.50
2023-04-11T09:16:10.547Z,7.20
2023-04-11T09:18:40.450Z,7.00
2023-04-11T09:21:14.528Z,6.40
2023-04-11T09:23:42.988Z,6.10
2023-04-11T09:26:12.420Z,5.90
2023-04-11T09:28:44.981Z,6.90
2023-04-11T09:31:13.930Z,6.00
2023-04-11T09:34:08.768Z,6.30
2023-04-11T09:36:38.564Z,5.90
2023-04-11T09:39:19.567Z,6.40
2023-04-11T09:41:47.793Z,5.40
2023-04-11T09:44:16.049Z,5.30
2023-04-11T09:47:02.599Z,6.00
2023-04-11T09:49:31.808Z,6.20
2023-04-11T09:52:00.133Z,5.60
2023-04-11T09:54:28.889Z,4.90
2023-04-11T09:56:57.314Z,6.20
2023-04-11T09:59:26.511Z,5.20
2023-04-11T10:01:54.948Z,6.10
2023-04-11T10:04:23.269Z,6.30
2023-04-11T10:07:02.387Z,6.10
2023-04-11T10:09:31.404Z,8.10
2023-04-11T10:12:01.355Z,5.70
2023-04-11T10:14:39.571Z,5.00
2023-04-11T10:17:15.710Z,5.50
2023-04-11T10:19:45.346Z,5.10
2023-04-11T10:22:44.061Z,5.00
2023-04-11T10:25:19.694Z,7.50
2023-04-11T10:28:01.503Z,6.10
2023-04-11T10:30:40.254Z,4.80
2023-04-11T10:33:12.849Z,5.00
2023-04-11T10:36:00.092Z,5.40
2023-04-11T10:38:37.728Z,6.20
2023-04-11T10:41:18.787Z,7.70
2023-04-11T10:43:47.887Z,7.00
2023-04-11T10:46:25.830Z,4.90
2023-04-11T10:48:58.199Z,6.50
2023-04-11T10:51:32.654Z,7.50
2023-04-11T10:54:01.291Z,7.80
2023-04-11T10:56:52.749Z,5.60
2023-04-11T10:59:36.276Z,5.90
2023-04-11T11:02:04.606Z,4.90
2023-04-11T11:04:41.166Z,5.90
2023-04-11T11:07:13.490Z,5.20
2023-04-11T11:09:41.952Z,5.40
2023-04-11T11:12:12.981Z,5.30
2023-04-11T11:14:45.595Z,4.30
2023-04-11T11:17:14.527Z,4.30
2023-04-11T11:19:45.212Z,5.00
2023-04-11T11:22:16.716Z,5.20
2023-04-11T11:24:44.840Z,5.50
2023-04-11T11:27:23.106Z,5.10
2023-04-11T11:29:51.844Z,5.40
2023-04-11T11:32:26.512Z,5.40
2023-04-11T11:34:55.566Z,4.90
2023-04-11T11:37:24.111Z,5.00
2023-04-11T11:39:52.432Z,5.30
2023-04-11T11:42:21.444Z,5.40
2023-04-11T11:44:49.525Z,5.90
2023-04-11T11:47:17.866Z,5.80
2023-04-11T11:49:51.104Z,5.80
2023-04-11T11:52:36.097Z,5.70
2023-04-11T11:55:08.094Z,4.90
2023-04-11T11:57:45.708Z,5.60
2023-04-11T12:00:16.345Z,5.90
2023-04-11T12:02:57.414Z,5.60
2023-04-11T12:05:30.621Z,4.40
2023-04-11T12:08:00.585Z,4.80
2023-04-11T12:10:37.690Z,4.20
2023-04-11T12:13:20.977Z,4.50
2023-04-11T12:15:53.263Z,4.90
2023-04-11T12:18:26.740Z,4.60
2023-04-11T12:20:55.088Z,4.90
2023-04-11T12:23:23.789Z,5.70
2023-04-11T12:25:51.898Z,5.50
2023-04-11T12:28:20.702Z,4.70
2023-04-11T12:30:48.821Z,5.10
2023-04-11T12:33:17.243Z,5.40
2023-04-11T12:35:46.024Z,5.10
2023-04-11T12:38:17.486Z,5.40
2023-04-11T12:40:47.080Z,5.10
2023-04-11T12:43:15.775Z,5.00
2023-04-11T12:45:44.608Z,6.00
2023-04-11T12:48:13.471Z,6.20
2023-04-11T12:50:42.406Z,5.20
2023-04-11T12:53:10.586Z,6.40
2023-04-11T12:55:38.835Z,5.80
2023-04-11T12:58:09.603Z,5.70
2023-04-11T13:00:37.912Z,6.30
2023-04-11T13:03:16.316Z,6.50
2023-04-11T13:05:46.714Z,5.60
2023-04-11T13:08:15.685Z,4.80
2023-04-11T13:10:44.019Z,5.20
2023-04-11T13:15:46.718Z,5.80
2023-04-11T13:18:14.982Z,8.30
2023-04-11T13:20:46.181Z,6.30
2023-04-11T13:23:16.679Z,6.90
2023-04-11T13:25:48.741Z,5.90
2023-04-11T13:28:17.175Z,4.50
2023-04-11T13:30:46.522Z,5.40
2023-04-11T13:33:14.828Z,4.60
2023-04-11T13:35:43.357Z,5.70
2023-04-11T13:38:12.872Z,4.90
2023-04-11T13:40:42.832Z,5.80
2023-04-11T13:43:11.260Z,7.60
2023-04-11T13:45:39.700Z,5.80
2023-04-11T13:48:08.279Z,5.60
2023-04-11T13:50:37.935Z,5.50
2023-04-11T13:53:06.127Z,5.40
2023-04-11T13:55:34.318Z,5.20
2023-04-11T13:58:02.596Z,4.90
2023-04-11T14:00:36.362Z,5.30
2023-04-11T14:03:06.096Z,6.40
2023-04-11T14:05:35.828Z,5.40
2023-04-11T14:08:04.336Z,5.00
2023-04-11T14:10:35.778Z,5.90
2023-04-11T14:13:06.895Z,5.80
2023-04-11T14:15:35.194Z,5.70
2023-04-11T14:18:03.673Z,6.00
2023-04-11T14:20:37.160Z,6.30
2023-04-11T14:23:05.398Z,4.90
2023-04-11T14:25:33.724Z,4.80
2023-04-11T14:28:02.305Z,4.40
2023-04-11T14:30:30.959Z,8.20
2023-04-11T14:32:59.702Z,7.00
2023-04-11T14:35:29.050Z,6.40
2023-04-11T14:37:57.828Z,5.50
2023-04-11T14:40:26.061Z,6.00
2023-04-11T14:42:54.429Z,4.60
2023-04-11T14:45:24.374Z,4.50
2023-04-11T14:47:52.656Z,5.00
2023-04-11T14:50:20.972Z,5.10
2023-04-11T14:52:52.196Z,5.10
2023-04-11T14:55:22.031Z,6.30
2023-04-11T14:57:53.488Z,7.10
2023-04-11T15:00:24.692Z,6.10
2023-04-11T15:02:55.203Z,6.10
2023-04-11T15:05:23.871Z,6.10
2023-04-11T15:07:53.518Z,5.30
2023-04-11T15:10:23.325Z,5.10
2023-04-11T15:12:51.697Z,5.40
2023-04-11T15:15:19.867Z,4.70
2023-04-11T15:17:49.841Z,5.80
2023-04-11T15:20:20.193Z,5.90
2023-04-11T15:22:48.451Z,4.70
2023-04-11T15:25:17.085Z,5.30
2023-04-11T15:27:45.272Z,5.30
2023-04-11T15:30:13.801Z,5.70
2023-04-11T15:32:42.979Z,5.90
2023-04-11T15:35:11.292Z,5.50
2023-04-11T15:37:39.882Z,6.00
2023-04-11T15:40:12.445Z,6.10
2023-04-11T15:42:45.364Z,5.20
2023-04-11T15:45:14.056Z,5.30
2023-04-11T15:47:42.620Z,5.70
2023-04-11T15:50:12.196Z,9.80
2023-04-11T15:52:40.773Z,6.50
2023-04-11T15:55:10.132Z,7.40
2023-04-11T15:57:38.919Z,7.00
2023-04-11T16:00:10.806Z,6.20
2023-04-11T16:02:44.944Z,6.00
2023-04-11T16:05:13.647Z,5.90
2023-04-11T16:07:43.186Z,7.20
2023-04-11T16:10:11.590Z,6.00
2023-04-11T16:12:39.910Z,5.80
2023-04-11T16:15:08.645Z,7.20
2023-04-11T16:17:39.577Z,7.50
2023-04-11T16:20:12.081Z,6.40
2023-04-11T16:22:40.636Z,6.30
2023-04-11T16:25:09.108Z,6.60
2023-04-11T16:27:37.531Z,6.30
2023-04-11T16:30:06.684Z,7.40
2023-04-11T16:32:36.327Z,7.20
2023-04-11T16:35:05.492Z,6.00
2023-04-11T16:37:35.791Z,6.40
2023-04-11T16:40:08.344Z,6.80
2023-04-11T16:42:37.524Z,7.40
2023-04-11T16:45:07.315Z,6.50
2023-04-11T16:47:35.731Z,7.10
2023-04-11T16:50:05.922Z,7.00
2023-04-11T16:52:34.201Z,7.40
2023-04-11T16:55:05.817Z,7.40
2023-04-11T16:57:34.726Z,7.60
2023-04-11T17:00:10.969Z,7.20
2023-04-11T17:02:57.558Z,6.60
2023-04-11T17:05:25.891Z,8.20
2023-04-11T17:07:54.979Z,7.20
2023-04-11T17:10:23.178Z,6.80
2023-04-11T17:12:51.927Z,6.60
2023-04-11T17:15:22.062Z,5.50
2023-04-11T17:17:50.938Z,7.20
2023-04-11T17:20:21.960Z,6.70
2023-04-11T17:22:50.915Z,7.90
2023-04-11T17:25:19.577Z,7.60
2023-04-11T17:27:49.572Z,6.70
2023-04-11T17:30:18.264Z,8.10
2023-04-11T17:32:48.404Z,7.50
2023-04-11T17:35:16.675Z,7.60
2023-04-11T17:37:45.581Z,7.80
2023-04-11T17:40:14.516Z,7.50
2023-04-11T17:42:43.977Z,8.70
2023-04-11T17:47:44.281Z,8.60
2023-04-11T17:50:13.611Z,8.10
2023-04-11T17:52:43.798Z,8.20
2023-04-11T17:55:14.037Z,8.70
2023-04-11T17:57:42.812Z,8.00
2023-04-11T18:00:24.165Z,8.80
2023-04-11T18:03:00.832Z,7.90
2023-04-11T18:05:31.557Z,7.80
2023-04-11T18:08:03.853Z,8.60
2023-04-11T18:10:32.573Z,7.60
2023-04-11T18:13:00.916Z,8.60
2023-04-11T18:15:36.160Z,8.90
2023-04-11T18:18:08.157Z,9.40
2023-04-11T18:20:36.549Z,9.00
2023-04-11T18:23:04.929Z,8.80
2023-04-11T18:25:34.061Z,9.20
2023-04-11T18:28:02.524Z,8.90
2023-04-11T18:30:31.972Z,8.70
2023-04-11T18:33:03.474Z,10.20
2023-04-11T18:35:31.834Z,9.40
2023-04-11T18:38:00.408Z,9.00
2023-04-11T18:40:29.889Z,10.50
2023-04-11T18:43:00.252Z,10.40
2023-04-11T18:45:29.337Z,11.20
2023-04-11T18:47:57.893Z,11.30
2023-04-11T18:50:27.787Z,11.80
2023-04-11T18:52:58.955Z,11.60
2023-04-11T18:55:30.850Z,10.10
2023-04-11T18:58:00.702Z,11.70
2023-04-11T19:00:32.502Z,11.20
2023-04-11T19:03:01.836Z,9.50
2023-04-11T19:05:30.937Z,9.70
2023-04-11T19:08:00.394Z,8.80
2023-04-11T19:10:30.223Z,8.90
2023-04-11T19:12:58.490Z,8.60
2023-04-11T19:15:29.657Z,7.90
2023-04-11T19:18:00.065Z,8.20
2023-04-11T19:20:29.717Z,7.10
2023-04-11T19:23:04.637Z,7.70
2023-04-11T19:25:32.991Z,7.70
2023-04-11T19:28:01.201Z,7.70
2023-04-11T19:30:29.763Z,8.60
2023-04-11T19:32:59.438Z,8.50
2023-04-11T19:35:28.166Z,7.80
2023-04-11T19:37:59.137Z,9.40
2023-04-11T19:40:28.856Z,8.90
2023-04-11T19:42:57.252Z,8.90
2023-04-11T19:45:25.636Z,9.30
2023-04-11T19:47:54.475Z,9.20
2023-04-11T19:50:23.041Z,7.90
2023-04-11T19:52:56.293Z,8.70
2023-04-11T19:55:24.843Z,8.40
2023-04-11T19:57:53.181Z,8.10
2023-04-11T20:00:21.721Z,8.60
2023-04-11T20:03:14.710Z,8.20
2023-04-11T20:05:44.374Z,9.50
2023-04-11T20:08:12.783Z,11.40
2023-04-11T20:10:41.544Z,10.50
2023-04-11T20:13:09.782Z,9.90
2023-04-11T20:15:38.324Z,10.10
2023-04-11T20:18:06.604Z,9.40
2023-04-11T20:20:36.969Z,7.90
2023-04-11T20:23:15.933Z,7.80
2023-04-11T20:25:44.823Z,8.10
2023-04-11T20:28:13.026Z,7.50
2023-04-11T20:30:41.992Z,7.80
2023-04-11T20:33:10.493Z,7.50
2023-04-11T20:35:39.122Z,8.00
2023-04-11T20:38:08.078Z,7.10
2023-04-11T20:40:37.272Z,8.30
2023-04-11T20:43:06.716Z,7.90
2023-04-11T20:45:36.381Z,9.60
2023-04-11T20:48:06.513Z,8.60
2023-04-11T20:50:35.798Z,8.10
2023-04-11T20:53:04.309Z,7.60
2023-04-11T20:55:33.526Z,8.60
2023-04-11T20:58:01.684Z,8.30
2023-04-11T21:00:30.341Z,9.20
2023-04-11T21:02:59.543Z,8.90
2023-04-11T21:05:27.951Z,8.70
2023-04-11T21:08:00.368Z,8.60
2023-04-11T21:10:28.797Z,7.40
2023-04-11T21:12:57.005Z,7.20
2023-04-11T21:15:26.833Z,8.10
2023-04-11T21:17:55.147Z,7.40
2023-04-11T21:20:23.820Z,6.80
2023-04-11T21:22:55.972Z,6.60
2023-04-11T21:25:25.391Z,5.90
2023-04-11T21:27:53.639Z,6.00
2023-04-11T21:30:21.955Z,5.50
2023-04-11T21:33:05.071Z,6.00
2023-04-11T21:35:34.666Z,7.30
2023-04-11T21:38:02.862Z,7.40
2023-04-11T21:40:31.684Z,6.80
2023-04-11T21:43:00.072Z,8.10
2023-04-11T21:45:30.507Z,8.90
2023-04-11T21:47:59.800Z,9.40
2023-04-11T21:50:28.001Z,8.40
2023-04-11T21:53:04.890Z,8.40
2023-04-11T21:55:33.397Z,8.10
2023-04-11T21:58:01.529Z,8.50
2023-04-11T22:00:30.187Z,8.00
2023-04-11T22:02:58.580Z,12.30
2023-04-11T22:05:27.645Z,9.30
2023-04-11T22:08:22.906Z,7.40
2023-04-11T22:10:52.586Z,7.70
2023-04-11T22:13:20.854Z,7.80
2023-04-11T22:15:58.423Z,6.00
2023-04-11T22:18:27.229Z,6.90
2023-04-11T22:21:03.277Z,5.50
2023-04-11T22:23:31.880Z,6.00
2023-04-11T22:26:00.260Z,5.80
2023-04-11T22:28:30.825Z,5.60
2023-04-11T22:30:58.923Z,6.50
2023-04-11T22:33:27.133Z,5.20
2023-04-11T22:35:58.605Z,6.40
2023-04-11T22:38:27.743Z,5.60
2023-04-11T22:40:55.954Z,5.90
2023-04-11T22:43:24.328Z,6.40
2023-04-11T22:45:53.276Z,5.70
2023-04-11T22:48:21.460Z,5.90
2023-04-11T22:50:53.135Z,5.90
2023-04-11T22:53:26.253Z,6.20
2023-04-11T22:55:54.444Z,6.00
2023-04-11T22:58:22.689Z,6.90
2023-04-11T23:00:52.054Z,5.80
2023-04-11T23:03:21.444Z,5.60
2023-04-11T23:05:51.332Z,5.80
2023-04-11T23:08:19.594Z,7.00
2023-04-11T23:10:47.755Z,7.00
2023-04-11T23:13:16.343Z,6.20
2023-04-11T23:15:47.378Z,6.70
2023-04-11T23:18:15.550Z,5.90
2023-04-11T23:20:49.540Z,7.30
2023-04-11T23:23:19.927Z,7.90
2023-04-11T23:25:48.123Z,6.60
2023-04-11T23:28:16.704Z,7.70
2023-04-11T23:30:46.662Z,8.40
2023-04-11T23:33:16.082Z,8.40
2023-04-11T23:35:44.161Z,8.90
2023-04-11T23:38:13.397Z,9.90
2023-04-11T23:40:42.428Z,8.80
2023-04-11T23:43:12.775Z,8.40
2023-04-11T23:45:41.285Z,9.70
2023-04-11T23:48:11.088Z,10.60
2023-04-11T23:50:40.117Z,10.00
2023-04-11T23:53:08.420Z,9.90
2023-04-11T23:55:36.781Z,10.00
2023-04-11T23:58:05.012Z,9.80
